createdAt,value
2018-11-26T00:01:55.500Z,24.10
2018-11-26T00:04:23.800Z,24.07
2018-11-26T00:06:52.128Z,20.83
2018-11-26T00:09:20.429Z,22.87
2018-11-26T00:11:48.850Z,24.13
2018-11-26T00:14:17.174Z,24.93
2018-11-26T00:16:45.501Z,22.80
2018-11-26T00:19:13.804Z,21.27
2018-11-26T00:21:42.120Z,22.33
2018-11-26T00:24:10.461Z,21.20
2018-11-26T00:26:38.806Z,21.37
2018-11-26T00:29:07.163Z,21.70
2018-11-26T00:31:35.478Z,22.73
2018-11-26T00:34:03.795Z,21.57
2018-11-26T00:36:32.137Z,21.73
2018-11-26T00:39:00.458Z,21.97
2018-11-26T00:41:28.786Z,19.73
2018-11-26T00:43:57.143Z,20.63
2018-11-26T00:46:25.435Z,21.63
2018-11-26T00:48:54.053Z,18.60
2018-11-26T00:51:22.362Z,19.43
2018-11-26T00:53:50.748Z,21.80
2018-11-26T00:56:19.048Z,19.23
2018-11-26T00:58:47.404Z,20.00
2018-11-26T01:01:15.745Z,19.13
2018-11-26T01:03:44.101Z,18.33
2018-11-26T01:06:12.388Z,20.03
2018-11-26T01:08:40.699Z,18.33
2018-11-26T01:11:09.253Z,21.30
2018-11-26T01:13:37.575Z,17.60
2018-11-26T01:16:05.967Z,16.83
2018-11-26T01:18:34.288Z,21.33
2018-11-26T01:21:02.605Z,21.07
2018-11-26T01:23:31.150Z,20.90
2018-11-26T01:25:59.464Z,20.83
2018-11-26T01:28:27.756Z,21.57
2018-11-26T01:30:56.130Z,19.43
2018-11-26T01:33:24.445Z,19.63
2018-11-26T01:35:52.775Z,20.67
2018-11-26T01:38:21.120Z,21.10
2018-11-26T01:40:51.900Z,21.10
2018-11-26T01:43:20.895Z,20.23
2018-11-26T01:45:49.245Z,22.43
2018-11-26T01:48:17.546Z,21.53
2018-11-26T01:50:45.864Z,20.00
2018-11-26T01:53:14.154Z,19.37
2018-11-26T01:55:42.452Z,22.33
2018-11-26T01:58:10.747Z,22.50
2018-11-26T02:00:39.166Z,20.63
2018-11-26T02:03:07.612Z,22.10
2018-11-26T02:05:36.445Z,22.50
2018-11-26T02:08:04.987Z,21.20
2018-11-26T02:10:33.314Z,23.10
2018-11-26T02:13:01.586Z,34.20
2018-11-26T02:15:35.554Z,23.67
2018-11-26T02:18:03.853Z,22.67
2018-11-26T02:20:32.577Z,22.70
2018-11-26T02:23:00.911Z,21.43
2018-11-26T02:25:29.211Z,20.80
2018-11-26T02:27:57.565Z,24.07
2018-11-26T02:30:25.975Z,20.50
2018-11-26T02:32:54.327Z,20.70
2018-11-26T02:35:22.654Z,23.47
2018-11-26T02:37:52.233Z,24.40
2018-11-26T02:40:27.819Z,24.10
2018-11-26T02:42:56.252Z,21.70
2018-11-26T02:45:24.615Z,23.67
2018-11-26T02:47:52.963Z,23.47
2018-11-26T02:50:21.262Z,22.77
2018-11-26T02:52:49.588Z,23.50
2018-11-26T02:55:17.890Z,26.13
2018-11-26T02:57:46.320Z,24.30
2018-11-26T03:00:14.768Z,25.53
2018-11-26T03:02:43.101Z,23.43
2018-11-26T03:05:13.517Z,26.70
2018-11-26T03:07:41.872Z,24.23
2018-11-26T03:10:10.814Z,26.90
2018-11-26T03:12:39.616Z,26.13
2018-11-26T03:15:10.489Z,26.80
2018-11-26T03:17:39.461Z,34.10
2018-11-26T03:20:09.067Z,30.63
2018-11-26T03:22:37.394Z,28.67
2018-11-26T03:25:07.016Z,27.30
2018-11-26T03:27:35.323Z,28.17
2018-11-26T03:30:04.388Z,27.57
2018-11-26T03:32:32.745Z,28.43
2018-11-26T03:35:01.032Z,28.43
2018-11-26T03:37:29.398Z,30.37
2018-11-26T03:39:57.699Z,33.87
2018-11-26T03:42:26.006Z,27.10
2018-11-26T03:44:54.381Z,31.10
2018-11-26T03:47:22.725Z,28.93
2018-11-26T03:49:51.052Z,30.30
2018-11-26T03:52:19.378Z,28.33
2018-11-26T03:54:47.734Z,54.27
2018-11-26T03:57:16.096Z,49.20
2018-11-26T03:59:44.497Z,30.87
2018-11-26T04:02:12.788Z,28.10
2018-11-26T04:04:41.243Z,31.00
2018-11-26T04:07:09.549Z,30.50
2018-11-26T04:09:37.863Z,30.70
2018-11-26T04:12:06.234Z,25.53
2018-11-26T04:14:34.610Z,32.97
2018-11-26T04:17:05.557Z,32.67
2018-11-26T04:19:33.911Z,29.80
2018-11-26T04:22:02.213Z,26.37
2018-11-26T04:24:30.515Z,30.27
2018-11-26T04:26:58.816Z,29.30
2018-11-26T04:29:27.181Z,29.47
2018-11-26T04:31:55.499Z,30.60
2018-11-26T04:34:23.823Z,29.43
2018-11-26T04:36:52.175Z,31.63
2018-11-26T04:39:20.519Z,29.33
2018-11-26T04:41:48.818Z,31.17
2018-11-26T04:44:17.157Z,29.37
2018-11-26T04:46:45.476Z,31.43
2018-11-26T04:49:13.785Z,30.37
2018-11-26T04:51:42.144Z,30.10
2018-11-26T04:54:10.438Z,28.80
2018-11-26T04:56:38.747Z,30.67
2018-11-26T04:59:07.053Z,29.67
2018-11-26T05:01:35.397Z,29.20
2018-11-26T05:04:03.709Z,28.83
2018-11-26T05:06:32.131Z,30.97
2018-11-26T05:09:00.468Z,35.87
2018-11-26T05:11:28.918Z,33.27
2018-11-26T05:13:57.356Z,31.50
2018-11-26T05:16:26.761Z,32.07
2018-11-26T05:18:55.077Z,30.57
2018-11-26T05:21:23.722Z,29.40
2018-11-26T05:23:52.867Z,30.23
2018-11-26T05:26:21.204Z,28.03
2018-11-26T05:28:49.606Z,31.43
2018-11-26T05:31:17.998Z,28.87
2018-11-26T05:33:46.299Z,31.00
2018-11-26T05:36:14.666Z,30.53
2018-11-26T05:38:42.974Z,30.63
2018-11-26T05:41:11.306Z,31.13
2018-11-26T05:43:39.593Z,32.77
2018-11-26T05:46:07.922Z,30.97
2018-11-26T05:48:36.229Z,28.23
2018-11-26T05:51:04.749Z,29.03
2018-11-26T05:53:33.116Z,31.03
2018-11-26T05:56:01.432Z,31.30
2018-11-26T05:58:29.769Z,30.73
2018-11-26T06:00:58.128Z,28.43
2018-11-26T06:03:26.636Z,30.77
2018-11-26T06:05:54.960Z,32.30
2018-11-26T06:08:23.435Z,32.63
2018-11-26T06:10:51.857Z,30.03
2018-11-26T06:13:20.172Z,31.97
2018-11-26T06:15:48.471Z,29.83
2018-11-26T06:18:16.932Z,32.67
2018-11-26T06:20:45.317Z,33.03
2018-11-26T06:23:13.669Z,33.90
2018-11-26T06:25:42.047Z,37.87
2018-11-26T06:28:10.406Z,36.07
2018-11-26T06:30:38.789Z,32.13
2018-11-26T06:33:07.113Z,37.40
2018-11-26T06:35:35.446Z,37.13
2018-11-26T06:38:03.732Z,36.13
2018-11-26T06:40:32.060Z,37.57
2018-11-26T06:43:00.419Z,34.10
2018-11-26T06:45:28.704Z,39.10
2018-11-26T06:48:02.272Z,35.63
2018-11-26T06:50:32.620Z,34.37
2018-11-26T06:53:00.951Z,36.77
2018-11-26T06:55:29.285Z,31.13
2018-11-26T06:57:57.676Z,33.53
2018-11-26T07:00:26.089Z,32.57
2018-11-26T07:02:54.390Z,33.83
2018-11-26T07:05:23.193Z,34.63
2018-11-26T07:07:51.547Z,32.53
2018-11-26T07:10:20.753Z,30.53
2018-11-26T07:12:49.136Z,31.43
2018-11-26T07:15:18.905Z,34.10
2018-11-26T07:17:49.751Z,32.63
2018-11-26T07:20:19.790Z,30.83
2018-11-26T07:22:48.166Z,31.23
2018-11-26T07:25:17.648Z,29.10
2018-11-26T07:27:51.684Z,26.23
2018-11-26T07:30:21.226Z,29.33
2018-11-26T07:32:49.576Z,28.00
2018-11-26T07:35:17.898Z,25.77
2018-11-26T07:37:46.222Z,27.03
2018-11-26T07:40:19.476Z,30.40
2018-11-26T07:42:51.280Z,28.33
2018-11-26T07:45:19.614Z,26.97
2018-11-26T07:47:47.946Z,28.30
2018-11-26T07:50:16.949Z,26.87
2018-11-26T07:52:45.321Z,30.37
2018-11-26T07:55:16.676Z,31.27
2018-11-26T07:57:45.090Z,28.80
2018-11-26T08:00:15.438Z,29.80
2018-11-26T08:02:44.038Z,32.07
2018-11-26T08:05:14.452Z,31.00
2018-11-26T08:07:42.780Z,29.80
2018-11-26T08:10:13.318Z,29.90
2018-11-26T08:12:41.732Z,30.47
2018-11-26T08:15:15.613Z,29.07
2018-11-26T08:17:43.903Z,26.00
2018-11-26T08:20:12.562Z,27.30
2018-11-26T08:22:40.901Z,26.97
2018-11-26T08:25:10.312Z,29.03
2018-11-26T08:27:39.053Z,28.27
2018-11-26T08:30:38.557Z,27.87
2018-11-26T08:33:06.877Z,25.83
2018-11-26T08:35:35.262Z,29.50
2018-11-26T08:38:07.505Z,25.53
2018-11-26T08:40:41.060Z,26.50
2018-11-26T08:43:14.900Z,24.87
2018-11-26T08:45:52.865Z,23.43
2018-11-26T08:48:27.433Z,26.30
2018-11-26T08:50:57.808Z,22.23
2018-11-26T08:53:26.171Z,28.80
2018-11-26T08:55:54.517Z,22.83
2018-11-26T08:58:22.847Z,24.27
2018-11-26T09:00:56.641Z,26.13
2018-11-26T09:03:29.398Z,23.40
2018-11-26T09:06:01.371Z,24.77
2018-11-26T09:08:31.107Z,20.07
2018-11-26T09:11:00.171Z,23.17
2018-11-26T09:13:28.523Z,24.93
2018-11-26T09:15:56.829Z,21.80
2018-11-26T09:18:25.142Z,23.30
2018-11-26T09:20:53.552Z,22.67
2018-11-26T09:23:21.905Z,19.27
2018-11-26T09:25:50.195Z,20.47
2018-11-26T09:28:19.199Z,20.17
2018-11-26T09:30:47.589Z,21.50
2018-11-26T09:33:15.961Z,20.70
2018-11-26T09:35:44.290Z,19.17
2018-11-26T09:38:13.157Z,19.67
2018-11-26T09:40:41.237Z,19.87
2018-11-26T09:43:09.560Z,19.47
2018-11-26T09:45:40.524Z,16.53
2018-11-26T09:48:06.425Z,19.30
2018-11-26T09:50:35.428Z,18.10
2018-11-26T09:53:03.759Z,19.00
2018-11-26T09:55:32.071Z,18.77
2018-11-26T09:58:00.414Z,17.37
2018-11-26T10:00:28.779Z,17.23
2018-11-26T10:02:57.097Z,17.00
2018-11-26T10:05:26.674Z,16.20
2018-11-26T10:07:54.773Z,14.03
2018-11-26T10:10:23.073Z,16.43
2018-11-26T10:12:51.383Z,15.57
2018-11-26T10:15:20.753Z,15.30
2018-11-26T10:17:49.119Z,17.43
2018-11-26T10:20:17.467Z,16.40
2018-11-26T10:22:46.425Z,15.03
2018-11-26T10:25:16.894Z,11.33
2018-11-26T10:27:45.246Z,14.63
2018-11-26T10:30:14.617Z,12.53
2018-11-26T10:32:43.546Z,12.60
2018-11-26T10:35:12.904Z,12.80
2018-11-26T10:37:41.326Z,13.53
2018-11-26T10:40:14.599Z,14.10
2018-11-26T10:42:42.896Z,12.20
2018-11-26T10:45:14.304Z,11.60
2018-11-26T10:47:49.426Z,15.33
2018-11-26T10:50:20.121Z,11.97
2018-11-26T10:52:51.661Z,12.07
2018-11-26T10:55:24.348Z,11.10
2018-11-26T10:57:52.751Z,11.80
2018-11-26T11:00:26.533Z,11.73
2018-11-26T11:02:54.881Z,11.03
2018-11-26T11:05:23.218Z,11.37
2018-11-26T11:07:51.520Z,10.40
2018-11-26T11:10:29.027Z,10.03
2018-11-26T11:12:57.419Z,12.27
2018-11-26T11:15:25.808Z,11.37
2018-11-26T11:17:54.346Z,11.07
2018-11-26T11:20:24.400Z,11.27
2018-11-26T11:22:52.926Z,11.50
2018-11-26T11:25:21.772Z,12.30
2018-11-26T11:27:50.362Z,12.27
2018-11-26T11:30:19.888Z,10.03
2018-11-26T11:32:48.231Z,10.10
2018-11-26T11:35:16.838Z,11.97
2018-11-26T11:37:46.249Z,12.80
2018-11-26T11:40:31.328Z,13.57
2018-11-26T11:43:00.419Z,14.43
2018-11-26T11:45:29.533Z,13.97
2018-11-26T11:47:57.837Z,12.63
2018-11-26T11:50:26.206Z,10.97
2018-11-26T11:52:54.586Z,12.83
2018-11-26T11:55:24.256Z,13.03
2018-11-26T11:57:53.015Z,11.90
2018-11-26T12:00:35.914Z,16.07
2018-11-26T12:03:06.165Z,12.70
2018-11-26T12:05:34.464Z,12.93
2018-11-26T12:08:02.783Z,11.80
2018-11-26T12:10:31.205Z,12.53
2018-11-26T12:12:59.510Z,15.83
2018-11-26T12:15:27.886Z,14.00
2018-11-26T12:17:56.276Z,21.20
2018-11-26T12:20:24.643Z,13.40
2018-11-26T12:22:52.957Z,13.23
2018-11-26T12:25:21.757Z,16.63
2018-11-26T12:27:50.055Z,14.30
2018-11-26T12:30:20.613Z,14.10
2018-11-26T12:32:48.954Z,16.17
2018-11-26T12:35:17.331Z,15.57
2018-11-26T12:37:45.674Z,15.53
2018-11-26T12:40:15.441Z,13.57
2018-11-26T12:42:43.737Z,13.13
2018-11-26T12:45:19.557Z,15.13
2018-11-26T12:47:47.865Z,17.07
2018-11-26T12:50:16.200Z,18.60
2018-11-26T12:52:44.526Z,17.30
2018-11-26T12:55:14.085Z,16.13
2018-11-26T12:57:43.313Z,14.87
2018-11-26T13:00:14.857Z,18.50
2018-11-26T13:02:43.546Z,15.57
2018-11-26T13:05:14.156Z,13.83
2018-11-26T13:07:42.504Z,18.07
2018-11-26T13:10:12.937Z,15.20
2018-11-26T13:12:41.342Z,14.03
2018-11-26T13:15:14.046Z,15.40
2018-11-26T13:17:42.462Z,16.00
2018-11-26T13:20:12.916Z,71.10
2018-11-26T13:22:41.244Z,36.03
2018-11-26T13:25:11.546Z,28.00
2018-11-26T13:27:41.348Z,16.00
2018-11-26T13:30:13.181Z,15.87
2018-11-26T13:32:41.572Z,15.77
2018-11-26T13:35:11.566Z,15.40
2018-11-26T13:37:39.866Z,16.10
2018-11-26T13:40:10.590Z,17.10
2018-11-26T13:42:39.270Z,17.03
2018-11-26T13:45:12.345Z,16.77
2018-11-26T13:47:40.958Z,17.30
2018-11-26T13:50:13.831Z,18.07
2018-11-26T13:52:42.186Z,17.60
2018-11-26T13:55:11.950Z,14.53
2018-11-26T13:57:40.382Z,18.77
2018-11-26T14:00:10.250Z,16.43
2018-11-26T14:02:38.847Z,15.87
2018-11-26T14:05:09.699Z,16.80
2018-11-26T14:07:38.083Z,18.43
2018-11-26T14:10:11.023Z,16.37
2018-11-26T14:12:39.477Z,20.00
2018-11-26T14:15:11.738Z,18.47
2018-11-26T14:17:40.185Z,15.63
2018-11-26T14:20:10.350Z,16.13
2018-11-26T14:22:38.949Z,18.37
2018-11-26T14:25:09.195Z,21.70
2018-11-26T14:27:37.523Z,17.57
2018-11-26T14:30:25.476Z,18.00
2018-11-26T14:32:54.183Z,21.07
2018-11-26T14:35:22.586Z,19.93
2018-11-26T14:37:54.219Z,19.60
2018-11-26T14:40:32.837Z,17.57
2018-11-26T14:43:01.168Z,21.90
2018-11-26T14:45:29.490Z,16.73
2018-11-26T14:47:57.812Z,20.07
2018-11-26T14:50:26.118Z,20.63
2018-11-26T14:52:54.551Z,18.03
2018-11-26T14:55:27.231Z,17.83
2018-11-26T14:57:55.602Z,18.00
2018-11-26T15:00:23.945Z,18.93
2018-11-26T15:02:52.258Z,20.07
2018-11-26T15:05:20.635Z,20.17
2018-11-26T15:07:48.979Z,19.17
2018-11-26T15:10:18.590Z,18.77
2018-11-26T15:12:47.306Z,17.30
2018-11-26T15:15:17.589Z,19.13
2018-11-26T15:17:46.311Z,18.40
2018-11-26T15:20:20.821Z,18.73
2018-11-26T15:22:49.685Z,19.87
2018-11-26T15:25:21.182Z,19.13
2018-11-26T15:27:50.016Z,18.87
2018-11-26T15:30:19.591Z,20.07
2018-11-26T15:32:48.014Z,19.53
2018-11-26T15:35:17.423Z,17.30
2018-11-26T15:37:45.748Z,18.67
2018-11-26T15:40:15.040Z,21.17
2018-11-26T15:42:43.436Z,21.33
2018-11-26T15:45:15.211Z,19.47
2018-11-26T15:47:43.559Z,20.53
2018-11-26T15:50:11.918Z,21.53
2018-11-26T15:52:40.285Z,19.10
2018-11-26T15:55:10.321Z,21.00
2018-11-26T15:57:38.651Z,19.20
2018-11-26T16:00:10.688Z,23.50
2018-11-26T16:02:39.077Z,23.13
2018-11-26T16:05:09.777Z,21.93
2018-11-26T16:07:38.143Z,20.60
2018-11-26T16:10:09.724Z,18.23
2018-11-26T16:12:38.108Z,20.23
2018-11-26T16:15:10.046Z,18.77
2018-11-26T16:17:38.410Z,17.93
2018-11-26T16:20:09.967Z,17.30
2018-11-26T16:22:38.294Z,19.77
2018-11-26T16:25:09.053Z,17.10
2018-11-26T16:27:37.369Z,26.03
2018-11-26T16:30:07.851Z,61.63
2018-11-26T16:32:36.873Z,39.87
2018-11-26T16:35:06.951Z,18.83
2018-11-26T16:37:35.337Z,19.87
2018-11-26T16:40:03.810Z,24.03
2018-11-26T16:42:32.189Z,20.80
2018-11-26T16:45:00.539Z,16.83
2018-11-26T16:47:28.856Z,19.90
2018-11-26T16:49:57.251Z,22.90
2018-11-26T16:52:25.652Z,19.93
2018-11-26T16:54:53.957Z,18.47
2018-11-26T16:57:22.340Z,16.97
2018-11-26T16:59:50.861Z,19.53
2018-11-26T17:02:19.206Z,18.63
2018-11-26T17:04:47.502Z,21.13
2018-11-26T17:07:15.819Z,20.53
2018-11-26T17:09:44.133Z,22.70
2018-11-26T17:12:12.570Z,22.87
2018-11-26T17:14:41.306Z,21.23
2018-11-26T17:17:09.630Z,27.23
2018-11-26T17:19:37.984Z,22.10
2018-11-26T17:22:06.302Z,22.30
2018-11-26T17:24:34.662Z,23.73
2018-11-26T17:27:02.982Z,23.23
2018-11-26T17:29:31.313Z,24.63
2018-11-26T17:33:02.425Z,22.70
2018-11-26T17:35:31.354Z,21.53
2018-11-26T17:37:59.675Z,23.70
2018-11-26T17:40:28.043Z,25.10
2018-11-26T17:42:56.613Z,23.47
2018-11-26T17:45:25.583Z,23.37
2018-11-26T17:47:57.225Z,24.57
2018-11-26T17:50:28.989Z,24.73
2018-11-26T17:52:57.395Z,25.90
2018-11-26T17:55:25.704Z,25.03
2018-11-26T17:57:54.100Z,23.63
2018-11-26T18:00:26.092Z,23.70
2018-11-26T18:02:54.410Z,24.80
2018-11-26T18:05:24.183Z,23.13
2018-11-26T18:07:58.374Z,27.70
2018-11-26T18:10:26.787Z,25.57
2018-11-26T18:12:55.083Z,25.97
2018-11-26T18:15:23.568Z,26.40
2018-11-26T18:17:51.955Z,26.97
2018-11-26T18:20:26.917Z,23.93
2018-11-26T18:22:55.406Z,26.40
2018-11-26T18:25:24.751Z,24.43
2018-11-26T18:27:55.792Z,22.70
2018-11-26T18:30:30.736Z,22.83
2018-11-26T18:32:59.123Z,25.77
2018-11-26T18:35:27.478Z,23.80
2018-11-26T18:37:55.823Z,22.53
2018-11-26T18:40:24.193Z,27.53
2018-11-26T18:42:52.510Z,23.00
2018-11-26T18:45:21.054Z,26.23
2018-11-26T18:47:49.641Z,25.27
2018-11-26T18:50:20.192Z,24.67
2018-11-26T18:52:49.358Z,27.10
2018-11-26T18:55:17.971Z,25.70
2018-11-26T18:57:46.351Z,28.10
2018-11-26T19:00:19.658Z,23.87
2018-11-26T19:02:48.069Z,24.37
2018-11-26T19:05:17.305Z,30.30
2018-11-26T19:07:45.667Z,28.30
2018-11-26T19:10:17.248Z,26.77
2018-11-26T19:12:47.419Z,26.00
2018-11-26T19:15:17.739Z,32.27
2018-11-26T19:17:46.683Z,28.80
2018-11-26T19:20:15.062Z,35.37
2018-11-26T19:22:43.370Z,28.10
2018-11-26T19:25:15.435Z,28.73
2018-11-26T19:27:43.759Z,27.53
2018-11-26T19:30:15.072Z,28.07
2018-11-26T19:32:44.458Z,25.60
2018-11-26T19:35:14.153Z,27.83
2018-11-26T19:37:42.539Z,28.27
2018-11-26T19:40:13.050Z,26.83
2018-11-26T19:42:42.238Z,27.20
2018-11-26T19:45:13.694Z,29.50
2018-11-26T19:47:42.259Z,26.27
2018-11-26T19:50:12.156Z,28.90
2018-11-26T19:52:40.469Z,26.23
2018-11-26T19:55:10.898Z,30.53
2018-11-26T19:57:39.275Z,30.30
2018-11-26T20:00:12.580Z,25.13
2018-11-26T20:02:40.933Z,26.50
2018-11-26T20:05:15.214Z,25.83
2018-11-26T20:07:44.582Z,29.20
2018-11-26T20:10:12.917Z,27.47
2018-11-26T20:12:41.241Z,28.50
2018-11-26T20:15:14.298Z,27.13
2018-11-26T20:17:43.015Z,28.53
2018-11-26T20:20:11.457Z,27.07
2018-11-26T20:22:39.800Z,28.90
2018-11-26T20:25:12.827Z,28.13
2018-11-26T20:27:41.409Z,27.27
2018-11-26T20:30:11.696Z,27.00
2018-11-26T20:32:40.694Z,29.37
2018-11-26T20:35:10.272Z,25.23
2018-11-26T20:37:38.614Z,26.70
2018-11-26T20:40:11.910Z,28.53
2018-11-26T20:42:44.649Z,28.53
2018-11-26T20:46:37.533Z,27.20
2018-11-26T20:49:07.651Z,29.03
2018-11-26T20:51:36.177Z,27.50
2018-11-26T20:54:04.526Z,31.97
2018-11-26T20:56:32.864Z,27.10
2018-11-26T20:59:01.197Z,24.23
2018-11-26T21:01:29.599Z,22.53
2018-11-26T21:03:57.963Z,24.60
2018-11-26T21:06:26.300Z,25.87
2018-11-26T21:08:54.770Z,25.90
2018-11-26T21:11:23.191Z,27.47
2018-11-26T21:13:51.505Z,24.80
2018-11-26T21:16:19.907Z,26.93
2018-11-26T21:18:48.218Z,27.40
2018-11-26T21:21:16.657Z,58.17
2018-11-26T21:23:45.014Z,60.33
2018-11-26T21:26:13.405Z,23.40
2018-11-26T21:28:41.778Z,22.83
2018-11-26T21:31:10.183Z,22.47
2018-11-26T21:33:38.487Z,25.20
2018-11-26T21:36:07.119Z,22.50
2018-11-26T21:38:37.436Z,21.70
2018-11-26T21:41:06.393Z,23.10
2018-11-26T21:43:34.749Z,21.00
2018-11-26T21:46:03.257Z,23.10
2018-11-26T21:48:31.596Z,19.50
2018-11-26T21:50:59.945Z,19.53
2018-11-26T21:53:28.290Z,23.97
2018-11-26T21:55:56.632Z,22.30
2018-11-26T21:58:24.972Z,19.93
2018-11-26T22:00:55.137Z,19.87
2018-11-26T22:03:23.486Z,20.47
2018-11-26T22:05:51.881Z,19.27
2018-11-26T22:08:20.202Z,21.37
2018-11-26T22:10:48.546Z,18.53
2018-11-26T22:13:19.501Z,17.33
2018-11-26T22:15:47.806Z,17.63
2018-11-26T22:18:16.133Z,17.50
2018-11-26T22:20:44.479Z,15.43
2018-11-26T22:23:12.798Z,17.67
2018-11-26T22:25:41.078Z,18.33
2018-11-26T22:28:10.481Z,15.73
2018-11-26T22:30:39.510Z,16.90
2018-11-26T22:33:09.024Z,16.70
2018-11-26T22:35:36.175Z,16.93
2018-11-26T22:38:04.474Z,17.60
2018-11-26T22:40:32.785Z,16.03
2018-11-26T22:43:01.143Z,14.17
2018-11-26T22:45:31.076Z,17.30
2018-11-26T22:48:18.619Z,14.27
2018-11-26T22:50:46.956Z,14.50
2018-11-26T22:53:15.294Z,16.37
2018-11-26T22:55:44.322Z,15.30
2018-11-26T22:58:13.520Z,14.73
2018-11-26T23:00:51.842Z,15.40
2018-11-26T23:03:21.538Z,14.33
2018-11-26T23:05:49.840Z,15.60
2018-11-26T23:08:18.151Z,11.43
2018-11-26T23:10:46.465Z,16.23
2018-11-26T23:13:14.975Z,16.80
2018-11-26T23:15:43.396Z,16.50
2018-11-26T23:18:11.747Z,16.43
2018-11-26T23:20:40.047Z,15.70
2018-11-26T23:23:08.416Z,14.87
2018-11-26T23:25:36.693Z,15.97
2018-11-26T23:28:05.353Z,16.73
2018-11-26T23:30:33.658Z,17.97
2018-11-26T23:33:03.034Z,17.10
2018-11-26T23:35:31.346Z,16.07
2018-11-26T23:37:59.750Z,16.73
2018-11-26T23:40:28.056Z,17.10
2018-11-26T23:42:56.362Z,13.70
2018-11-26T23:45:25.730Z,16.40
2018-11-26T23:47:54.082Z,15.80
2018-11-26T23:50:22.600Z,15.53
2018-11-26T23:52:50.898Z,16.67
2018-11-26T23:55:20.284Z,15.00
2018-11-26T23:57:48.589Z,14.50
